sensor_id;sensor_type;location;lat;lon;timestamp;P1;durP1;ratioP1;P2;durP2;ratioP2
428;SDS011;201;48.758;9.290;2022-11-20T00:01:39;6.60;;;4.60;;
428;SDS011;201;48.758;9.290;2022-11-20T00:04:05;6.87;;;5.33;;
428;SDS011;201;48.758;9.290;2022-11-20T00:06:31;5.30;;;3.90;;
428;SDS011;201;48.758;9.290;2022-11-20T00:08:57;5.60;;;4.77;;
428;SDS011;201;48.758;9.290;2022-11-20T00:11:26;5.30;;;4.70;;
428;SDS011;201;48.758;9.290;2022-11-20T00:13:53;5.70;;;4.20;;
428;SDS011;201;48.758;9.290;2022-11-20T00:16:23;7.40;;;4.67;;
428;SDS011;201;48.758;9.290;2022-11-20T00:18:49;4.60;;;4.20;;
428;SDS011;201;48.758;9.290;2022-11-20T00:21:16;5.87;;;4.80;;
428;SDS011;201;48.758;9.290;2022-11-20T00:23:44;5.57;;;4.00;;
428;SDS011;201;48.758;9.290;2022-11-20T00:26:11;4.53;;;4.20;;
428;SDS011;201;48.758;9.290;2022-11-20T00:28:42;4.70;;;4.37;;
428;SDS011;201;48.758;9.290;2022-11-20T00:31:10;6.47;;;4.33;;
428;SDS011;201;48.758;9.290;2022-11-20T00:33:39;4.97;;;3.50;;
428;SDS011;201;48.758;9.290;2022-11-20T00:36:07;4.10;;;3.93;;
428;SDS011;201;48.758;9.290;2022-11-20T00:38:40;4.93;;;3.70;;
428;SDS011;201;48.758;9.290;2022-11-20T00:41:07;4.00;;;3.70;;
428;SDS011;201;48.758;9.290;2022-11-20T00:43:34;6.43;;;3.60;;
428;SDS011;201;48.758;9.290;2022-11-20T00:46:04;4.70;;;3.67;;
428;SDS011;201;48.758;9.290;2022-11-20T00:48:34;3.63;;;3.43;;
428;SDS011;201;48.758;9.290;2022-11-20T00:51:00;3.33;;;3.20;;
428;SDS011;201;48.758;9.290;2022-11-20T00:53:26;4.03;;;3.47;;
428;SDS011;201;48.758;9.290;2022-11-20T00:55:53;5.87;;;4.27;;
428;SDS011;201;48.758;9.290;2022-11-20T00:58:23;5.63;;;3.83;;
428;SDS011;201;48.758;9.290;2022-11-20T01:00:49;5.80;;;4.40;;
428;SDS011;201;48.758;9.290;2022-11-20T01:03:15;3.80;;;3.50;;
428;SDS011;201;48.758;9.290;2022-11-20T01:05:42;4.27;;;3.70;;
428;SDS011;201;48.758;9.290;2022-11-20T01:08:07;4.37;;;3.40;;
428;SDS011;201;48.758;9.290;2022-11-20T01:10:33;5.37;;;4.10;;
428;SDS011;201;48.758;9.290;2022-11-20T01:12:58;3.83;;;3.60;;
428;SDS011;201;48.758;9.290;2022-11-20T01:15:42;5.80;;;4.23;;
428;SDS011;201;48.758;9.290;2022-11-20T01:18:08;4.90;;;3.90;;
428;SDS011;201;48.758;9.290;2022-11-20T01:20:34;4.63;;;3.40;;
428;SDS011;201;48.758;9.290;2022-11-20T01:23:01;5.40;;;4.17;;
428;SDS011;201;48.758;9.290;2022-11-20T01:25:27;4.40;;;3.63;;
428;SDS011;201;48.758;9.290;2022-11-20T01:27:53;5.60;;;4.13;;
428;SDS011;201;48.758;9.290;2022-11-20T01:30:18;6.83;;;3.73;;
428;SDS011;201;48.758;9.290;2022-11-20T01:32:44;4.50;;;4.10;;
428;SDS011;201;48.758;9.290;2022-11-20T01:35:09;6.20;;;3.40;;
428;SDS011;201;48.758;9.290;2022-11-20T01:37:35;4.37;;;3.03;;
428;SDS011;201;48.758;9.290;2022-11-20T01:40:00;3.47;;;3.30;;
428;SDS011;201;48.758;9.290;2022-11-20T01:42:26;4.97;;;3.13;;
428;SDS011;201;48.758;9.290;2022-11-20T01:48:14;3.33;;;2.90;;
428;SDS011;201;48.758;9.290;2022-11-20T01:50:40;3.40;;;2.60;;
428;SDS011;201;48.758;9.290;2022-11-20T01:53:08;4.97;;;3.33;;
428;SDS011;201;48.758;9.290;2022-11-20T01:55:41;3.50;;;2.50;;
428;SDS011;201;48.758;9.290;2022-11-20T01:58:20;3.87;;;3.00;;
428;SDS011;201;48.758;9.290;2022-11-20T02:00:50;2.90;;;2.70;;
428;SDS011;201;48.758;9.290;2022-11-20T02:03:16;3.07;;;2.80;;
428;SDS011;201;48.758;9.290;2022-11-20T02:08:43;3.80;;;2.67;;
428;SDS011;201;48.758;9.290;2022-11-20T02:11:09;6.03;;;2.57;;
428;SDS011;201;48.758;9.290;2022-11-20T02:13:35;2.43;;;2.27;;
428;SDS011;201;48.758;9.290;2022-11-20T02:16:16;3.57;;;2.97;;
428;SDS011;201;48.758;9.290;2022-11-20T02:18:51;3.33;;;2.30;;
428;SDS011;201;48.758;9.290;2022-11-20T02:24:15;4.53;;;2.50;;
428;SDS011;201;48.758;9.290;2022-11-20T02:29:13;3.67;;;2.90;;
428;SDS011;201;48.758;9.290;2022-11-20T02:31:42;4.10;;;2.57;;
428;SDS011;201;48.758;9.290;2022-11-20T02:34:08;4.20;;;3.13;;
428;SDS011;201;48.758;9.290;2022-11-20T02:36:34;2.70;;;2.43;;
428;SDS011;201;48.758;9.290;2022-11-20T02:39:02;2.87;;;2.53;;
428;SDS011;201;48.758;9.290;2022-11-20T02:41:32;4.37;;;2.80;;
428;SDS011;201;48.758;9.290;2022-11-20T02:43:58;6.43;;;3.30;;
428;SDS011;201;48.758;9.290;2022-11-20T02:46:24;4.10;;;3.30;;
428;SDS011;201;48.758;9.290;2022-11-20T02:48:50;3.83;;;2.87;;
428;SDS011;201;48.758;9.290;2022-11-20T02:51:15;3.27;;;2.80;;
428;SDS011;201;48.758;9.290;2022-11-20T02:53:41;5.33;;;3.60;;
428;SDS011;201;48.758;9.290;2022-11-20T02:56:06;3.13;;;2.97;;
428;SDS011;201;48.758;9.290;2022-11-20T02:58:32;3.67;;;3.33;;
428;SDS011;201;48.758;9.290;2022-11-20T03:00:58;3.47;;;3.27;;
428;SDS011;201;48.758;9.290;2022-11-20T03:03:23;4.73;;;3.20;;
428;SDS011;201;48.758;9.290;2022-11-20T03:05:49;3.93;;;3.07;;
428;SDS011;201;48.758;9.290;2022-11-20T03:08:14;6.30;;;3.57;;
428;SDS011;201;48.758;9.290;2022-11-20T03:10:40;4.70;;;4.07;;
428;SDS011;201;48.758;9.290;2022-11-20T03:13:05;6.63;;;4.10;;
428;SDS011;201;48.758;9.290;2022-11-20T03:15:31;3.80;;;3.50;;
428;SDS011;201;48.758;9.290;2022-11-20T03:17:56;4.07;;;3.90;;
428;SDS011;201;48.758;9.290;2022-11-20T03:20:22;7.47;;;3.90;;
428;SDS011;201;48.758;9.290;2022-11-20T03:22:48;3.17;;;3.03;;
428;SDS011;201;48.758;9.290;2022-11-20T03:25:13;4.57;;;3.00;;
428;SDS011;201;48.758;9.290;2022-11-20T03:27:39;3.77;;;3.47;;
428;SDS011;201;48.758;9.290;2022-11-20T03:30:05;3.47;;;2.83;;
428;SDS011;201;48.758;9.290;2022-11-20T03:32:31;3.77;;;3.20;;
428;SDS011;201;48.758;9.290;2022-11-20T03:34:57;3.33;;;2.83;;
428;SDS011;201;48.758;9.290;2022-11-20T03:37:22;3.97;;;3.33;;
428;SDS011;201;48.758;9.290;2022-11-20T03:39:48;3.27;;;3.13;;
428;SDS011;201;48.758;9.290;2022-11-20T03:42:13;6.07;;;3.73;;
428;SDS011;201;48.758;9.290;2022-11-20T03:44:57;3.37;;;3.17;;
428;SDS011;201;48.758;9.290;2022-11-20T03:47:23;3.30;;;3.10;;
428;SDS011;201;48.758;9.290;2022-11-20T03:49:49;3.27;;;3.10;;
428;SDS011;201;48.758;9.290;2022-11-20T03:52:14;5.27;;;3.20;;
428;SDS011;201;48.758;9.290;2022-11-20T03:54:40;5.17;;;3.37;;
428;SDS011;201;48.758;9.290;2022-11-20T03:57:05;5.83;;;3.67;;
428;SDS011;201;48.758;9.290;2022-11-20T03:59:31;2.87;;;2.73;;
428;SDS011;201;48.758;9.290;2022-11-20T04:01:56;3.43;;;3.10;;
428;SDS011;201;48.758;9.290;2022-11-20T04:04:22;4.50;;;3.47;;
428;SDS011;201;48.758;9.290;2022-11-20T04:06:47;3.50;;;3.20;;
428;SDS011;201;48.758;9.290;2022-11-20T04:09:13;3.87;;;2.97;;
428;SDS011;201;48.758;9.290;2022-11-20T04:11:39;4.23;;;3.83;;
428;SDS011;201;48.758;9.290;2022-11-20T04:14:06;6.20;;;3.43;;
428;SDS011;201;48.758;9.290;2022-11-20T04:16:37;3.70;;;3.50;;
428;SDS011;201;48.758;9.290;2022-11-20T04:19:04;6.70;;;4.67;;
428;SDS011;201;48.758;9.290;2022-11-20T04:21:31;3.70;;;3.53;;
428;SDS011;201;48.758;9.290;2022-11-20T04:23:57;4.33;;;3.57;;
428;SDS011;201;48.758;9.290;2022-11-20T04:26:24;3.10;;;2.60;;
428;SDS011;201;48.758;9.290;2022-11-20T04:28:51;3.97;;;3.20;;
428;SDS011;201;48.758;9.290;2022-11-20T04:31:19;3.60;;;3.40;;
428;SDS011;201;48.758;9.290;2022-11-20T04:33:46;5.03;;;3.10;;
428;SDS011;201;48.758;9.290;2022-11-20T04:38:38;4.27;;;3.43;;
428;SDS011;201;48.758;9.290;2022-11-20T04:41:04;2.67;;;2.50;;
428;SDS011;201;48.758;9.290;2022-11-20T04:43:31;3.40;;;2.83;;
428;SDS011;201;48.758;9.290;2022-11-20T04:45:57;4.30;;;3.30;;
428;SDS011;201;48.758;9.290;2022-11-20T04:48:23;3.20;;;2.93;;
428;SDS011;201;48.758;9.290;2022-11-20T04:50:50;3.40;;;3.10;;
428;SDS011;201;48.758;9.290;2022-11-20T04:53:16;2.80;;;2.50;;
428;SDS011;201;48.758;9.290;2022-11-20T04:55:42;4.07;;;3.07;;
428;SDS011;201;48.758;9.290;2022-11-20T04:58:07;5.43;;;3.70;;
428;SDS011;201;48.758;9.290;2022-11-20T05:00:33;3.40;;;3.23;;
428;SDS011;201;48.758;9.290;2022-11-20T05:02:58;3.37;;;3.20;;
428;SDS011;201;48.758;9.290;2022-11-20T05:05:24;4.50;;;3.30;;
428;SDS011;201;48.758;9.290;2022-11-20T05:07:49;3.43;;;2.90;;
428;SDS011;201;48.758;9.290;2022-11-20T05:10:15;6.70;;;3.50;;
428;SDS011;201;48.758;9.290;2022-11-20T05:12:41;4.27;;;3.10;;
428;SDS011;201;48.758;9.290;2022-11-20T05:15:06;3.60;;;2.80;;
428;SDS011;201;48.758;9.290;2022-11-20T05:17:32;5.63;;;2.97;;
428;SDS011;201;48.758;9.290;2022-11-20T05:19:58;3.27;;;2.83;;
428;SDS011;201;48.758;9.290;2022-11-20T05:22:23;5.37;;;2.73;;
428;SDS011;201;48.758;9.290;2022-11-20T05:24:49;3.20;;;2.57;;
428;SDS011;201;48.758;9.290;2022-11-20T05:27:14;3.53;;;3.10;;
428;SDS011;201;48.758;9.290;2022-11-20T05:29:40;4.53;;;3.13;;
428;SDS011;201;48.758;9.290;2022-11-20T05:32:05;3.33;;;3.10;;
428;SDS011;201;48.758;9.290;2022-11-20T05:34:33;3.80;;;3.30;;
428;SDS011;201;48.758;9.290;2022-11-20T05:36:59;4.73;;;2.97;;
428;SDS011;201;48.758;9.290;2022-11-20T05:39:24;4.00;;;3.10;;
428;SDS011;201;48.758;9.290;2022-11-20T05:41:50;3.57;;;2.63;;
428;SDS011;201;48.758;9.290;2022-11-20T05:44:36;4.00;;;3.13;;
428;SDS011;201;48.758;9.290;2022-11-20T05:47:01;3.63;;;3.40;;
428;SDS011;201;48.758;9.290;2022-11-20T05:49:27;3.40;;;3.20;;
428;SDS011;201;48.758;9.290;2022-11-20T05:51:52;5.33;;;2.80;;
428;SDS011;201;48.758;9.290;2022-11-20T05:54:18;3.43;;;2.80;;
428;SDS011;201;48.758;9.290;2022-11-20T05:56:43;4.53;;;3.30;;
428;SDS011;201;48.758;9.290;2022-11-20T05:59:09;3.17;;;2.50;;
428;SDS011;201;48.758;9.290;2022-11-20T06:01:34;2.93;;;2.40;;
428;SDS011;201;48.758;9.290;2022-11-20T06:04:01;2.57;;;2.37;;
428;SDS011;201;48.758;9.290;2022-11-20T06:06:27;2.70;;;2.53;;
428;SDS011;201;48.758;9.290;2022-11-20T06:08:52;7.47;;;3.40;;
428;SDS011;201;48.758;9.290;2022-11-20T06:11:18;3.33;;;3.13;;
428;SDS011;201;48.758;9.290;2022-11-20T06:13:44;4.20;;;2.30;;
428;SDS011;201;48.758;9.290;2022-11-20T06:16:11;2.33;;;2.17;;
428;SDS011;201;48.758;9.290;2022-11-20T06:18:38;2.73;;;2.50;;
428;SDS011;201;48.758;9.290;2022-11-20T06:23:35;2.73;;;2.53;;
428;SDS011;201;48.758;9.290;2022-11-20T06:26:02;3.73;;;2.93;;
428;SDS011;201;48.758;9.290;2022-11-20T06:28:29;3.43;;;2.50;;
428;SDS011;201;48.758;9.290;2022-11-20T06:30:55;2.30;;;2.10;;
428;SDS011;201;48.758;9.290;2022-11-20T06:33:20;2.60;;;2.30;;
428;SDS011;201;48.758;9.290;2022-11-20T06:35:46;4.50;;;2.70;;
428;SDS011;201;48.758;9.290;2022-11-20T06:38:11;2.13;;;1.97;;
428;SDS011;201;48.758;9.290;2022-11-20T06:40:39;2.70;;;2.33;;
428;SDS011;201;48.758;9.290;2022-11-20T06:43:05;4.17;;;3.00;;
428;SDS011;201;48.758;9.290;2022-11-20T06:45:31;2.57;;;2.40;;
428;SDS011;201;48.758;9.290;2022-11-20T06:47:57;4.73;;;2.63;;
428;SDS011;201;48.758;9.290;2022-11-20T06:50:23;2.27;;;2.10;;
428;SDS011;201;48.758;9.290;2022-11-20T06:52:48;2.93;;;2.37;;
428;SDS011;201;48.758;9.290;2022-11-20T06:55:14;2.57;;;2.20;;
428;SDS011;201;48.758;9.290;2022-11-20T06:57:39;2.80;;;2.60;;
428;SDS011;201;48.758;9.290;2022-11-20T07:00:05;2.67;;;2.30;;
428;SDS011;201;48.758;9.290;2022-11-20T07:02:31;3.73;;;2.97;;
428;SDS011;201;48.758;9.290;2022-11-20T07:04:57;3.33;;;2.90;;
428;SDS011;201;48.758;9.290;2022-11-20T07:07:22;3.40;;;2.50;;
428;SDS011;201;48.758;9.290;2022-11-20T07:09:48;3.33;;;2.37;;
428;SDS011;201;48.758;9.290;2022-11-20T07:12:13;2.90;;;2.40;;
428;SDS011;201;48.758;9.290;2022-11-20T07:14:39;2.87;;;2.43;;
428;SDS011;201;48.758;9.290;2022-11-20T07:17:04;3.17;;;2.90;;
428;SDS011;201;48.758;9.290;2022-11-20T07:19:30;3.50;;;2.47;;
428;SDS011;201;48.758;9.290;2022-11-20T07:21:55;2.63;;;2.07;;
428;SDS011;201;48.758;9.290;2022-11-20T07:24:21;3.67;;;3.03;;
428;SDS011;201;48.758;9.290;2022-11-20T07:26:46;3.57;;;2.80;;
428;SDS011;201;48.758;9.290;2022-11-20T07:29:14;3.40;;;2.20;;
428;SDS011;201;48.758;9.290;2022-11-20T07:31:39;4.80;;;2.37;;
428;SDS011;201;48.758;9.290;2022-11-20T07:34:05;2.80;;;2.60;;
428;SDS011;201;48.758;9.290;2022-11-20T07:36:30;3.10;;;3.00;;
428;SDS011;201;48.758;9.290;2022-11-20T07:38:56;2.90;;;2.60;;
428;SDS011;201;48.758;9.290;2022-11-20T07:41:21;2.00;;;1.90;;
428;SDS011;201;48.758;9.290;2022-11-20T07:43:47;2.17;;;2.00;;
428;SDS011;201;48.758;9.290;2022-11-20T07:46:12;3.53;;;2.70;;
428;SDS011;201;48.758;9.290;2022-11-20T07:48:38;3.50;;;2.97;;
428;SDS011;201;48.758;9.290;2022-11-20T07:51:04;4.43;;;2.00;;
428;SDS011;201;48.758;9.290;2022-11-20T07:53:30;2.40;;;2.23;;
428;SDS011;201;48.758;9.290;2022-11-20T07:55:58;2.90;;;2.50;;
428;SDS011;201;48.758;9.290;2022-11-20T07:58:24;3.00;;;2.30;;
428;SDS011;201;48.758;9.290;2022-11-20T08:00:50;3.00;;;2.53;;
428;SDS011;201;48.758;9.290;2022-11-20T08:03:16;4.63;;;2.90;;
428;SDS011;201;48.758;9.290;2022-11-20T08:05:41;4.37;;;2.47;;
428;SDS011;201;48.758;9.290;2022-11-20T08:08:07;5.10;;;2.77;;
428;SDS011;201;48.758;9.290;2022-11-20T08:10:33;3.60;;;2.57;;
428;SDS011;201;48.758;9.290;2022-11-20T08:12:58;3.03;;;2.30;;
428;SDS011;201;48.758;9.290;2022-11-20T08:15:47;2.20;;;2.07;;
428;SDS011;201;48.758;9.290;2022-11-20T08:18:16;2.57;;;2.00;;
428;SDS011;201;48.758;9.290;2022-11-20T08:20:42;3.27;;;2.30;;
428;SDS011;201;48.758;9.290;2022-11-20T08:23:08;3.37;;;2.17;;
428;SDS011;201;48.758;9.290;2022-11-20T08:25:34;3.13;;;2.50;;
428;SDS011;201;48.758;9.290;2022-11-20T08:28:02;2.60;;;2.07;;
428;SDS011;201;48.758;9.290;2022-11-20T08:30:32;2.90;;;2.27;;
428;SDS011;201;48.758;9.290;2022-11-20T08:33:03;3.07;;;2.60;;
428;SDS011;201;48.758;9.290;2022-11-20T08:35:36;3.10;;;2.43;;
428;SDS011;201;48.758;9.290;2022-11-20T08:38:03;5.30;;;3.40;;
428;SDS011;201;48.758;9.290;2022-11-20T08:40:29;3.10;;;2.17;;
428;SDS011;201;48.758;9.290;2022-11-20T08:42:55;6.27;;;2.30;;
428;SDS011;201;48.758;9.290;2022-11-20T08:45:21;2.97;;;1.70;;
428;SDS011;201;48.758;9.290;2022-11-20T08:47:47;3.53;;;2.10;;
428;SDS011;201;48.758;9.290;2022-11-20T08:50:13;2.70;;;2.17;;
428;SDS011;201;48.758;9.290;2022-11-20T08:52:40;2.30;;;1.97;;
428;SDS011;201;48.758;9.290;2022-11-20T08:55:06;3.43;;;2.30;;
428;SDS011;201;48.758;9.290;2022-11-20T08:57:33;2.17;;;2.03;;
428;SDS011;201;48.758;9.290;2022-11-20T09:00:06;2.20;;;2.00;;
428;SDS011;201;48.758;9.290;2022-11-20T09:02:33;1.93;;;1.83;;
428;SDS011;201;48.758;9.290;2022-11-20T09:04:59;1.87;;;1.77;;
428;SDS011;201;48.758;9.290;2022-11-20T09:07:24;2.17;;;2.00;;
428;SDS011;201;48.758;9.290;2022-11-20T09:09:50;6.20;;;3.40;;
428;SDS011;201;48.758;9.290;2022-11-20T09:12:15;2.30;;;2.03;;
428;SDS011;201;48.758;9.290;2022-11-20T09:14:41;2.30;;;1.73;;
428;SDS011;201;48.758;9.290;2022-11-20T09:17:06;3.80;;;1.73;;
428;SDS011;201;48.758;9.290;2022-11-20T09:19:32;1.70;;;1.63;;
428;SDS011;201;48.758;9.290;2022-11-20T09:21:58;2.17;;;1.70;;
428;SDS011;201;48.758;9.290;2022-11-20T09:24:25;2.07;;;1.30;;
428;SDS011;201;48.758;9.290;2022-11-20T09:26:51;1.97;;;1.60;;
428;SDS011;201;48.758;9.290;2022-11-20T09:29:16;1.43;;;1.33;;
428;SDS011;201;48.758;9.290;2022-11-20T09:31:42;2.33;;;1.47;;
428;SDS011;201;48.758;9.290;2022-11-20T09:34:08;2.13;;;1.70;;
428;SDS011;201;48.758;9.290;2022-11-20T09:36:34;2.13;;;1.40;;
428;SDS011;201;48.758;9.290;2022-11-20T09:39:00;1.40;;;1.30;;
428;SDS011;201;48.758;9.290;2022-11-20T09:41:36;1.87;;;1.50;;
428;SDS011;201;48.758;9.290;2022-11-20T09:46:48;0.90;;;0.90;;
428;SDS011;201;48.758;9.290;2022-11-20T09:55:10;1.27;;;1.23;;
428;SDS011;201;48.758;9.290;2022-11-20T09:57:38;1.17;;;1.10;;
428;SDS011;201;48.758;9.290;2022-11-20T10:00:11;1.00;;;0.90;;
428;SDS011;201;48.758;9.290;2022-11-20T10:02:43;1.30;;;1.20;;
428;SDS011;201;48.758;9.290;2022-11-20T10:07:48;1.10;;;0.87;;
428;SDS011;201;48.758;9.290;2022-11-20T10:10:40;1.77;;;0.73;;
428;SDS011;201;48.758;9.290;2022-11-20T10:13:15;0.80;;;0.70;;
428;SDS011;201;48.758;9.290;2022-11-20T10:23:50;2.27;;;0.80;;
428;SDS011;201;48.758;9.290;2022-11-20T10:26:31;1.27;;;0.97;;
428;SDS011;201;48.758;9.290;2022-11-20T10:29:19;0.77;;;0.70;;
428;SDS011;201;48.758;9.290;2022-11-20T10:31:57;3.47;;;2.27;;
428;SDS011;201;48.758;9.290;2022-11-20T10:37:10;1.00;;;0.70;;
428;SDS011;201;48.758;9.290;2022-11-20T10:45:21;0.90;;;0.60;;
428;SDS011;201;48.758;9.290;2022-11-20T10:48:21;1.17;;;1.03;;
428;SDS011;201;48.758;9.290;2022-11-20T10:50:53;1.80;;;0.90;;
428;SDS011;201;48.758;9.290;2022-11-20T10:58:52;2.03;;;1.30;;
428;SDS011;201;48.758;9.290;2022-11-20T11:01:26;1.63;;;1.20;;
428;SDS011;201;48.758;9.290;2022-11-20T11:03:52;1.40;;;1.10;;
428;SDS011;201;48.758;9.290;2022-11-20T11:06:40;0.93;;;0.80;;
428;SDS011;201;48.758;9.290;2022-11-20T11:09:12;1.30;;;0.90;;
428;SDS011;201;48.758;9.290;2022-11-20T11:11:42;1.00;;;0.90;;
428;SDS011;201;48.758;9.290;2022-11-20T11:14:08;1.37;;;0.83;;
428;SDS011;201;48.758;9.290;2022-11-20T11:16:48;1.63;;;0.93;;
428;SDS011;201;48.758;9.290;2022-11-20T11:19:14;1.27;;;1.07;;
428;SDS011;201;48.758;9.290;2022-11-20T11:21:53;1.10;;;1.00;;
428;SDS011;201;48.758;9.290;2022-11-20T11:24:22;0.80;;;0.70;;
428;SDS011;201;48.758;9.290;2022-11-20T11:26:54;1.60;;;1.07;;
428;SDS011;201;48.758;9.290;2022-11-20T11:29:22;1.20;;;1.10;;
428;SDS011;201;48.758;9.290;2022-11-20T11:31:48;1.47;;;1.40;;
428;SDS011;201;48.758;9.290;2022-11-20T11:34:15;1.00;;;0.93;;
428;SDS011;201;48.758;9.290;2022-11-20T11:36:42;2.37;;;1.30;;
428;SDS011;201;48.758;9.290;2022-11-20T11:39:21;1.60;;;1.03;;
428;SDS011;201;48.758;9.290;2022-11-20T11:41:47;2.57;;;1.47;;
428;SDS011;201;48.758;9.290;2022-11-20T11:50:02;1.87;;;1.30;;
428;SDS011;201;48.758;9.290;2022-11-20T11:52:48;1.53;;;1.43;;
428;SDS011;201;48.758;9.290;2022-11-20T11:55:42;3.33;;;1.20;;
428;SDS011;201;48.758;9.290;2022-11-20T12:01:32;1.50;;;1.43;;
428;SDS011;201;48.758;9.290;2022-11-20T12:06:31;4.90;;;1.70;;
428;SDS011;201;48.758;9.290;2022-11-20T12:09:09;2.90;;;1.70;;
428;SDS011;201;48.758;9.290;2022-11-20T12:11:53;6.43;;;1.67;;
428;SDS011;201;48.758;9.290;2022-11-20T12:14:33;1.30;;;1.13;;
428;SDS011;201;48.758;9.290;2022-11-20T12:17:02;1.90;;;1.10;;
428;SDS011;201;48.758;9.290;2022-11-20T12:19:29;1.43;;;1.43;;
428;SDS011;201;48.758;9.290;2022-11-20T12:24:59;3.13;;;1.37;;
428;SDS011;201;48.758;9.290;2022-11-20T12:30:16;1.00;;;1.00;;
428;SDS011;201;48.758;9.290;2022-11-20T12:38:39;1.77;;;0.87;;
428;SDS011;201;48.758;9.290;2022-11-20T12:47:39;4.83;;;2.17;;
428;SDS011;201;48.758;9.290;2022-11-20T12:50:39;3.90;;;2.30;;
428;SDS011;201;48.758;9.290;2022-11-20T12:53:27;2.67;;;1.93;;
428;SDS011;201;48.758;9.290;2022-11-20T12:58:40;4.13;;;1.47;;
428;SDS011;201;48.758;9.290;2022-11-20T13:01:29;1.53;;;1.00;;
428;SDS011;201;48.758;9.290;2022-11-20T13:06:58;1.17;;;0.60;;
428;SDS011;201;48.758;9.290;2022-11-20T13:09:29;1.17;;;0.87;;
428;SDS011;201;48.758;9.290;2022-11-20T13:14:38;2.27;;;1.50;;
428;SDS011;201;48.758;9.290;2022-11-20T13:17:14;0.63;;;0.50;;
428;SDS011;201;48.758;9.290;2022-11-20T13:19:55;0.73;;;0.57;;
428;SDS011;201;48.758;9.290;2022-11-20T13:22:27;1.43;;;0.50;;
428;SDS011;201;48.758;9.290;2022-11-20T13:24:54;0.90;;;0.70;;
428;SDS011;201;48.758;9.290;2022-11-20T13:27:23;2.10;;;0.87;;
428;SDS011;201;48.758;9.290;2022-11-20T13:29:59;2.60;;;0.90;;
428;SDS011;201;48.758;9.290;2022-11-20T13:32:47;1.27;;;0.70;;
428;SDS011;201;48.758;9.290;2022-11-20T13:35:23;0.60;;;0.60;;
428;SDS011;201;48.758;9.290;2022-11-20T13:37:59;0.80;;;0.60;;
428;SDS011;201;48.758;9.290;2022-11-20T13:45:58;5.47;;;1.13;;
428;SDS011;201;48.758;9.290;2022-11-20T13:48:26;0.80;;;0.60;;
428;SDS011;201;48.758;9.290;2022-11-20T14:02:22;2.10;;;1.10;;
428;SDS011;201;48.758;9.290;2022-11-20T14:04:51;2.03;;;0.80;;
428;SDS011;201;48.758;9.290;2022-11-20T14:07:19;0.73;;;0.53;;
428;SDS011;201;48.758;9.290;2022-11-20T14:09:54;2.40;;;1.27;;
428;SDS011;201;48.758;9.290;2022-11-20T14:12:22;2.90;;;1.00;;
428;SDS011;201;48.758;9.290;2022-11-20T14:14:55;0.80;;;0.60;;
428;SDS011;201;48.758;9.290;2022-11-20T14:17:23;2.60;;;1.13;;
428;SDS011;201;48.758;9.290;2022-11-20T14:19:54;0.90;;;0.70;;
428;SDS011;201;48.758;9.290;2022-11-20T14:22:28;1.80;;;1.03;;
428;SDS011;201;48.758;9.290;2022-11-20T14:25:39;1.67;;;1.23;;
428;SDS011;201;48.758;9.290;2022-11-20T14:27:41;2.50;;;0.80;;
428;SDS011;201;48.758;9.290;2022-11-20T14:30:18;2.77;;;0.80;;
428;SDS011;201;48.758;9.290;2022-11-20T14:32:53;0.97;;;0.90;;
428;SDS011;201;48.758;9.290;2022-11-20T14:35:31;0.90;;;0.77;;
428;SDS011;201;48.758;9.290;2022-11-20T14:38:00;3.60;;;2.53;;
428;SDS011;201;48.758;9.290;2022-11-20T14:40:28;0.90;;;0.90;;
428;SDS011;201;48.758;9.290;2022-11-20T14:42:56;1.40;;;0.90;;
428;SDS011;201;48.758;9.290;2022-11-20T14:45:23;1.70;;;0.80;;
428;SDS011;201;48.758;9.290;2022-11-20T14:47:51;3.17;;;1.10;;
428;SDS011;201;48.758;9.290;2022-11-20T14:50:26;0.97;;;0.87;;
428;SDS011;201;48.758;9.290;2022-11-20T14:52:54;3.70;;;1.10;;
428;SDS011;201;48.758;9.290;2022-11-20T14:55:35;1.20;;;0.70;;
428;SDS011;201;48.758;9.290;2022-11-20T14:58:06;3.43;;;1.00;;
428;SDS011;201;48.758;9.290;2022-11-20T15:00:59;0.80;;;0.63;;
428;SDS011;201;48.758;9.290;2022-11-20T15:03:35;4.30;;;1.00;;
428;SDS011;201;48.758;9.290;2022-11-20T15:06:03;0.93;;;0.80;;
428;SDS011;201;48.758;9.290;2022-11-20T15:08:30;3.57;;;2.03;;
428;SDS011;201;48.758;9.290;2022-11-20T15:10:56;2.77;;;2.43;;
428;SDS011;201;48.758;9.290;2022-11-20T15:13:24;1.30;;;1.10;;
428;SDS011;201;48.758;9.290;2022-11-20T15:15:52;1.20;;;1.17;;
428;SDS011;201;48.758;9.290;2022-11-20T15:18:22;1.73;;;1.50;;
428;SDS011;201;48.758;9.290;2022-11-20T15:20:54;2.90;;;1.20;;
428;SDS011;201;48.758;9.290;2022-11-20T15:23:21;3.43;;;1.10;;
428;SDS011;201;48.758;9.290;2022-11-20T15:25:47;2.93;;;1.07;;
428;SDS011;201;48.758;9.290;2022-11-20T15:31:13;1.03;;;0.67;;
428;SDS011;201;48.758;9.290;2022-11-20T15:33:40;1.80;;;1.03;;
428;SDS011;201;48.758;9.290;2022-11-20T15:36:06;1.47;;;1.07;;
428;SDS011;201;48.758;9.290;2022-11-20T15:38:31;1.93;;;1.20;;
428;SDS011;201;48.758;9.290;2022-11-20T15:40:57;1.37;;;1.00;;
428;SDS011;201;48.758;9.290;2022-11-20T15:43:22;5.70;;;2.70;;
428;SDS011;201;48.758;9.290;2022-11-20T15:45:55;1.90;;;1.37;;
428;SDS011;201;48.758;9.290;2022-11-20T15:48:26;2.30;;;1.67;;
428;SDS011;201;48.758;9.290;2022-11-20T15:50:58;2.20;;;1.43;;
428;SDS011;201;48.758;9.290;2022-11-20T15:53:30;5.60;;;3.77;;
428;SDS011;201;48.758;9.290;2022-11-20T15:55:56;2.00;;;1.30;;
428;SDS011;201;48.758;9.290;2022-11-20T15:58:22;1.30;;;1.30;;
428;SDS011;201;48.758;9.290;2022-11-20T16:00:51;1.47;;;1.47;;
428;SDS011;201;48.758;9.290;2022-11-20T16:03:17;4.57;;;1.90;;
428;SDS011;201;48.758;9.290;2022-11-20T16:05:43;2.03;;;1.30;;
428;SDS011;201;48.758;9.290;2022-11-20T16:08:09;1.23;;;1.20;;
428;SDS011;201;48.758;9.290;2022-11-20T16:10:38;1.70;;;1.60;;
428;SDS011;201;48.758;9.290;2022-11-20T16:13:04;4.97;;;1.50;;
428;SDS011;201;48.758;9.290;2022-11-20T16:15:55;1.80;;;1.43;;
428;SDS011;201;48.758;9.290;2022-11-20T16:18:22;4.30;;;1.80;;
428;SDS011;201;48.758;9.290;2022-11-20T16:20:50;1.97;;;1.43;;
428;SDS011;201;48.758;9.290;2022-11-20T16:23:17;2.83;;;1.50;;
428;SDS011;201;48.758;9.290;2022-11-20T16:25:45;6.93;;;1.90;;
428;SDS011;201;48.758;9.290;2022-11-20T16:28:11;3.07;;;1.50;;
428;SDS011;201;48.758;9.290;2022-11-20T16:30:36;1.83;;;1.37;;
428;SDS011;201;48.758;9.290;2022-11-20T16:33:03;1.77;;;1.70;;
428;SDS011;201;48.758;9.290;2022-11-20T16:35:29;2.47;;;1.53;;
428;SDS011;201;48.758;9.290;2022-11-20T16:37:56;2.30;;;1.90;;
428;SDS011;201;48.758;9.290;2022-11-20T16:40:22;2.27;;;1.50;;
428;SDS011;201;48.758;9.290;2022-11-20T16:42:49;3.00;;;1.67;;
428;SDS011;201;48.758;9.290;2022-11-20T16:45:15;1.50;;;1.40;;
428;SDS011;201;48.758;9.290;2022-11-20T16:47:41;4.97;;;2.13;;
428;SDS011;201;48.758;9.290;2022-11-20T16:50:06;3.30;;;1.70;;
428;SDS011;201;48.758;9.290;2022-11-20T16:52:32;2.03;;;1.43;;
428;SDS011;201;48.758;9.290;2022-11-20T16:54:58;3.83;;;2.53;;
428;SDS011;201;48.758;9.290;2022-11-20T16:57:26;3.10;;;2.10;;
428;SDS011;201;48.758;9.290;2022-11-20T17:02:22;1.80;;;1.70;;
428;SDS011;201;48.758;9.290;2022-11-20T17:04:48;3.63;;;2.37;;
428;SDS011;201;48.758;9.290;2022-11-20T17:07:13;2.30;;;1.60;;
428;SDS011;201;48.758;9.290;2022-11-20T17:09:39;2.33;;;2.13;;
428;SDS011;201;48.758;9.290;2022-11-20T17:12:05;2.23;;;2.03;;
428;SDS011;201;48.758;9.290;2022-11-20T17:14:31;1.97;;;1.77;;
428;SDS011;201;48.758;9.290;2022-11-20T17:16:56;1.70;;;1.60;;
428;SDS011;201;48.758;9.290;2022-11-20T17:19:22;3.07;;;2.13;;
428;SDS011;201;48.758;9.290;2022-11-20T17:21:48;2.40;;;1.70;;
428;SDS011;201;48.758;9.290;2022-11-20T17:24:13;2.60;;;1.87;;
428;SDS011;201;48.758;9.290;2022-11-20T17:26:42;2.30;;;1.90;;
428;SDS011;201;48.758;9.290;2022-11-20T17:29:12;4.17;;;2.10;;
428;SDS011;201;48.758;9.290;2022-11-20T17:31:42;1.63;;;1.60;;
428;SDS011;201;48.758;9.290;2022-11-20T17:34:11;3.57;;;1.70;;
428;SDS011;201;48.758;9.290;2022-11-20T17:36:38;5.23;;;2.67;;
428;SDS011;201;48.758;9.290;2022-11-20T17:39:08;2.30;;;1.80;;
428;SDS011;201;48.758;9.290;2022-11-20T17:41:35;1.90;;;1.83;;
428;SDS011;201;48.758;9.290;2022-11-20T17:44:00;3.53;;;2.17;;